Time;durP1;ratioP1;P1;durP2;ratioP2;P2;SDS_P1;SDS_P2;PMS_P1;PMS_P2;Temp;Humidity;BMP_temperature;BMP_pressure;BME280_temperature;BME280_humidity;BME280_pressure;Samples;Min_cycle;Max_cycle;Signal;HPM_P1;HPM_P2
2023/04/10 00:02:30;;;;;;;;;;;;;;;;;;5075919;28;19919;-81
2023/04/10 00:05:16;;;;;;;;;;;;;;;;;;5062363;28;19920;-81
2023/04/10 00:08:03;;;;;;;;;;;;;;;;;;5063029;28;19923;-81
2023/04/10 00:10:49;;;;;;;;;;;;;;;;;;5054984;28;19921;-82
2023/04/10 00:13:36;;;;;;;;;;;;;;;;;;5060954;28;19924;-82
2023/04/10 00:16:22;;;;;;;;;;;;;;;;;;5067528;28;19935;-82
2023/04/10 00:19:09;;;;;;;;;;;;;;;;;;5066629;28;19932;-81
2023/04/10 00:21:55;;;;;;;;;;;;;;;;;;5062238;28;19912;-81
2023/04/10 00:24:42;;;;;;;;;;;;;;;;;;5082020;28;19923;-82
2023/04/10 00:27:28;;;;;;;;;;;;;;;;;;5044091;28;19921;-82
2023/04/10 00:30:15;;;;;;;;;;;;;;;;;;5046196;28;20585;-80
2023/04/10 00:33:01;;;;;;;;;;;;;;;;;;5051578;28;19919;-81
2023/04/10 00:35:48;;;;;;;;;;;;;;;;;;5079607;28;19920;-81
2023/04/10 00:38:36;;;;;;;;;;;;;;;;;;5049543;28;19925;-81
2023/04/10 00:41:23;;;;;;;;;;;;;;;;;;5066009;28;19916;-80
2023/04/10 00:44:10;;;;;;;;;;;;;;;;;;5056089;28;19920;-80
2023/04/10 00:46:56;;;;;;;;;;;;;;;;;;5049729;28;19924;-80
2023/04/10 00:49:43;;;;;;;;;;;;;;;;;;5055801;28;19916;-82
2023/04/10 00:52:29;;;;;;;;;;;;;;;;;;5062726;28;19920;-81
2023/04/10 00:55:16;;;;;;;;;;;;;;;;;;5052068;28;19928;-80
2023/04/10 00:58:02;;;;;;;;;;;;;;;;;;5068505;28;19921;-80
2023/04/10 01:00:49;;;;;;;;;;;;;;;;;;5056975;28;19924;-81
2023/04/10 01:03:35;;;;;;;;;;;;;;;;;;5059413;28;19920;-81
2023/04/10 01:06:22;;;;;;;;;;;;;;;;;;5051356;28;19917;-81
2023/04/10 01:09:08;;;;;;;;;;;;;;;;;;5050100;28;19917;-81
2023/04/10 01:11:55;;;;;;;;;;;;;;;;;;5073564;28;19923;-80
2023/04/10 01:14:42;;;;;;;;;;;;;;;;;;5054078;28;19917;-82
2023/04/10 01:17:28;;;;;;;;;;;;;;;;;;5050441;28;19928;-81
2023/04/10 01:20:15;;;;;;;;;;;;;;;;;;5057861;28;20432;-81
2023/04/10 01:23:01;;;;;;;;;;;;;;;;;;5024792;28;19952;-81
2023/04/10 01:25:48;;;;;;;;;;;;;;;;;;5048905;28;19916;-81
2023/04/10 01:28:34;;;;;;;;;;;;;;;;;;5055228;28;19928;-81
2023/04/10 01:31:21;;;;;;;;;;;;;;;;;;5052128;28;19940;-81
2023/04/10 01:34:07;;;;;;;;;;;;;;;;;;5056434;28;19912;-80
2023/04/10 01:36:54;;;;;;;;;;;;;;;;;;5052705;28;19926;-80
2023/04/10 01:39:40;;;;;;;;;;;;;;;;;;5052479;28;19940;-81
2023/04/10 01:42:27;;;;;;;;;;;;;;;;;;5059087;28;20053;-82
2023/04/10 01:45:13;;;;;;;;;;;;;;;;;;5048280;28;19923;-81
2023/04/10 01:48:00;;;;;;;;;;;;;;;;;;5065073;28;19927;-81
2023/04/10 01:50:46;;;;;;;;;;;;;;;;;;5047675;28;19924;-82
2023/04/10 01:53:33;;;;;;;;;;;;;;;;;;5045362;28;19917;-82
2023/04/10 01:56:19;;;;;;;;;;;;;;;;;;5050287;28;19920;-82
2023/04/10 01:59:06;;;;;;;;;;;;;;;;;;5063940;28;19946;-82
2023/04/10 02:01:52;;;;;;;;;;;;;;;;;;5065419;28;19923;-82
2023/04/10 02:04:39;;;;;;;;;;;;;;;;;;5051122;28;19912;-82
2023/04/10 02:07:25;;;;;;;;;;;;;;;;;;5053378;28;19919;-82
2023/04/10 02:10:12;;;;;;;;;;;;;;;;;;5043454;28;19921;-82
2023/04/10 02:12:58;;;;;;;;;;;;;;;;;;5038865;28;20660;-82
2023/04/10 02:15:45;;;;;;;;;;;;;;;;;;5031788;28;19931;-82
2023/04/10 02:18:31;;;;;;;;;;;;;;;;;;5044080;28;19921;-81
2023/04/10 02:21:18;;;;;;;;;;;;;;;;;;5052806;28;19987;-82
2023/04/10 02:24:04;;;;;;;;;;;;;;;;;;5047980;28;19943;-80
2023/04/10 02:26:51;;;;;;;;;;;;;;;;;;5055358;28;20392;-80
2023/04/10 02:29:37;;;;;;;;;;;;;;;;;;5050894;28;19924;-80
2023/04/10 02:32:24;;;;;;;;;;;;;;;;;;5044582;28;19917;-79
2023/04/10 02:35:10;;;;;;;;;;;;;;;;;;5061009;28;19939;-79
2023/04/10 02:37:57;;;;;;;;;;;;;;;;;;5053243;28;19924;-79
2023/04/10 02:40:44;;;;;;;;;;;;;;;;;;5044533;28;19928;-79
2023/04/10 02:43:31;;;;;;;;;;;;;;;;;;5051127;28;19926;-80
2023/04/10 02:46:17;;;;;;;;;;;;;;;;;;5061440;28;19913;-80
2023/04/10 02:49:05;;;;;;;;;;;;;;;;;;5054971;28;20590;-79
2023/04/10 02:51:51;;;;;;;;;;;;;;;;;;5056894;28;19920;-80
2023/04/10 02:54:39;;;;;;;;;;;;;;;;;;5057714;28;19939;-81
2023/04/10 02:57:26;;;;;;;;;;;;;;;;;;5053523;28;19919;-80
2023/04/10 03:00:12;;;;;;;;;;;;;;;;;;5064240;28;19925;-81
2023/04/10 03:02:59;;;;;;;;;;;;;;;;;;5046249;28;19922;-84
2023/04/10 03:05:47;;;;;;;;;;;;;;;;;;5065836;28;19920;-81
2023/04/10 03:08:34;;;;;;;;;;;;;;;;;;5061505;28;19917;-81
2023/04/10 03:11:20;;;;;;;;;;;;;;;;;;5055645;28;19921;-80
2023/04/10 03:14:08;;;;;;;;;;;;;;;;;;5040110;28;19940;-82
2023/04/10 03:16:54;;;;;;;;;;;;;;;;;;5062620;28;19929;-80
2023/04/10 03:19:43;;;;;;;;;;;;;;;;;;5058892;28;25290;-80
2023/04/10 03:22:31;;;;;;;;;;;;;;;;;;5060673;28;19939;-81
2023/04/10 03:25:18;;;;;;;;;;;;;;;;;;5048405;28;19939;-81
2023/04/10 03:28:05;;;;;;;;;;;;;;;;;;5059453;28;19923;-81
2023/04/10 03:30:51;;;;;;;;;;;;;;;;;;5061258;28;19930;-81
2023/04/10 03:33:38;;;;;;;;;;;;;;;;;;5061634;28;20568;-81
2023/04/10 03:36:26;;;;;;;;;;;;;;;;;;5055591;28;20410;-82
2023/04/10 03:39:13;;;;;;;;;;;;;;;;;;5056440;28;19920;-81
2023/04/10 03:41:59;;;;;;;;;;;;;;;;;;5060870;28;19935;-81
2023/04/10 03:44:46;;;;;;;;;;;;;;;;;;5050229;28;19916;-81
2023/04/10 03:47:32;;;;;;;;;;;;;;;;;;5057909;28;19940;-81
2023/04/10 03:50:19;;;;;;;;;;;;;;;;;;5054241;28;19921;-82
2023/04/10 03:53:05;;;;;;;;;;;;;;;;;;5053754;28;19917;-80
2023/04/10 03:55:52;;;;;;;;;;;;;;;;;;5045294;28;19919;-80
2023/04/10 03:58:38;;;;;;;;;;;;;;;;;;5054480;28;20339;-81
2023/04/10 04:01:25;;;;;;;;;;;;;;;;;;5045742;28;19926;-80
2023/04/10 04:04:11;;;;;;;;;;;;;;;;;;5059823;28;19943;-81
2023/04/10 04:06:58;;;;;;;;;;;;;;;;;;5040318;28;19919;-81
2023/04/10 04:09:44;;;;;;;;;;;;;;;;;;5056831;28;19929;-81
2023/04/10 04:12:31;;;;;;;;;;;;;;;;;;5055605;28;19920;-81
2023/04/10 04:15:17;;;;;;;;;;;;;;;;;;5043176;28;20287;-81
2023/04/10 04:18:04;;;;;;;;;;;;;;;;;;5055063;28;19920;-81
2023/04/10 04:20:50;;;;;;;;;;;;;;;;;;5064032;28;19916;-81
2023/04/10 04:23:37;;;;;;;;;;;;;;;;;;5058688;28;19916;-81
2023/04/10 04:26:23;;;;;;;;;;;;;;;;;;5064130;28;20390;-81
2023/04/10 04:29:10;;;;;;;;;;;;;;;;;;5047997;28;19921;-83
2023/04/10 04:31:56;;;;;;;;;;;;;;;;;;5078088;28;19916;-83
2023/04/10 04:34:43;;;;;;;;;;;;;;;;;;5070364;28;19916;-81
2023/04/10 04:37:30;;;;;;;;;;;;;;;;;;5074943;28;19923;-83
2023/04/10 04:40:16;;;;;;;;;;;;;;;;;;5069583;28;19931;-83
2023/04/10 04:43:03;;;;;;;;;;;;;;;;;;5066394;28;19950;-82
2023/04/10 04:45:49;;;;;;;;;;;;;;;;;;5065379;28;19917;-80
2023/04/10 04:48:36;;;;;;;;;;;;;;;;;;5067920;28;19912;-81
2023/04/10 04:51:22;;;;;;;;;;;;;;;;;;5062257;28;20539;-83
2023/04/10 04:54:09;;;;;;;;;;;;;;;;;;5058730;28;20552;-83
2023/04/10 04:56:56;;;;;;;;;;;;;;;;;;5057208;28;19917;-82
2023/04/10 04:59:43;;;;;;;;;;;;;;;;;;5065015;28;19925;-82
2023/04/10 05:02:29;;;;;;;;;;;;;;;;;;5048664;28;19920;-82
2023/04/10 05:05:16;;;;;;;;;;;;;;;;;;5056810;28;19943;-81
2023/04/10 05:08:02;;;;;;;;;;;;;;;;;;5048984;28;19920;-82
2023/04/10 05:10:49;;;;;;;;;;;;;;;;;;5061327;28;19920;-82
2023/04/10 05:13:35;;;;;;;;;;;;;;;;;;5066668;28;19913;-83
2023/04/10 05:16:22;;;;;;;;;;;;;;;;;;5046622;28;20007;-83
2023/04/10 05:19:08;;;;;;;;;;;;;;;;;;5054673;28;19931;-82
2023/04/10 05:21:55;;;;;;;;;;;;;;;;;;5054808;28;19921;-83
2023/04/10 05:24:41;;;;;;;;;;;;;;;;;;5046685;28;19974;-83
2023/04/10 05:27:28;;;;;;;;;;;;;;;;;;5040258;28;19921;-83
2023/04/10 05:30:14;;;;;;;;;;;;;;;;;;5079404;28;19920;-82
2023/04/10 05:33:01;;;;;;;;;;;;;;;;;;5058268;28;20125;-82
2023/04/10 05:35:47;;;;;;;;;;;;;;;;;;5062726;28;19921;-82
2023/04/10 05:38:34;;;;;;;;;;;;;;;;;;5063371;28;19928;-82
2023/04/10 05:41:21;;;;;;;;;;;;;;;;;;5062969;28;20398;-83
2023/04/10 05:44:07;;;;;;;;;;;;;;;;;;5056625;28;19917;-82
2023/04/10 05:46:54;;;;;;;;;;;;;;;;;;5064559;28;20299;-82
2023/04/10 05:49:40;;;;;;;;;;;;;;;;;;5059310;28;20380;-82
2023/04/10 05:52:27;;;;;;;;;;;;;;;;;;5073637;28;19920;-82
2023/04/10 05:55:13;;;;;;;;;;;;;;;;;;5056939;28;19921;-82
2023/04/10 05:58:00;;;;;;;;;;;;;;;;;;5061275;28;19921;-82
2023/04/10 06:00:46;;;;;;;;;;;;;;;;;;5063532;28;19939;-82
2023/04/10 06:03:32;;;;;;;;;;;;;;;;;;5059568;28;19916;-82
2023/04/10 06:06:19;;;;;;;;;;;;;;;;;;5053074;28;19921;-81
2023/04/10 06:09:06;;;;;;;;;;;;;;;;;;5062223;28;19927;-82
2023/04/10 06:11:52;;;;;;;;;;;;;;;;;;5050179;28;19921;-82
2023/04/10 06:14:39;;;;;;;;;;;;;;;;;;5052688;28;19931;-82
2023/04/10 06:17:27;;;;;;;;;;;;;;;;;;5039000;28;20323;-82
2023/04/10 06:20:13;;;;;;;;;;;;;;;;;;5040527;28;19925;-83
2023/04/10 06:23:00;;;;;;;;;;;;;;;;;;5038788;28;19921;-81
2023/04/10 06:25:46;;;;;;;;;;;;;;;;;;5038510;28;19928;-84
2023/04/10 06:28:33;;;;;;;;;;;;;;;;;;5041984;28;19917;-84
2023/04/10 06:31:22;;;;;;;;;;;;;;;;;;5032900;28;19940;-85
2023/04/10 06:34:09;;;;;;;;;;;;;;;;;;5035347;28;19924;-82
2023/04/10 06:36:55;;;;;;;;;;;;;;;;;;5035161;28;19928;-82
2023/04/10 06:39:42;;;;;;;;;;;;;;;;;;5037887;28;19933;-82
2023/04/10 06:42:28;;;;;;;;;;;;;;;;;;5033793;28;19962;-82
2023/04/10 06:45:15;;;;;;;;;;;;;;;;;;5029345;28;19917;-82
2023/04/10 06:48:01;;;;;;;;;;;;;;;;;;5029713;28;19918;-81
2023/04/10 06:50:47;;;;;;;;;;;;;;;;;;5039116;28;19920;-82
2023/04/10 06:53:34;;;;;;;;;;;;;;;;;;5037123;28;19928;-82
2023/04/10 06:56:21;;;;;;;;;;;;;;;;;;5019361;28;19927;-82
2023/04/10 06:59:07;;;;;;;;;;;;;;;;;;5022502;28;19933;-81
2023/04/10 07:01:54;;;;;;;;;;;;;;;;;;5034604;28;20352;-82
2023/04/10 07:04:40;;;;;;;;;;;;;;;;;;5023958;28;20294;-82
2023/04/10 07:07:28;;;;;;;;;;;;;;;;;;5031664;28;19917;-81
2023/04/10 07:10:14;;;;;;;;;;;;;;;;;;5032901;28;19917;-81
2023/04/10 07:13:01;;;;;;;;;;;;;;;;;;5032429;28;19920;-82
2023/04/10 07:15:47;;;;;;;;;;;;;;;;;;5037343;28;20299;-81
2023/04/10 07:18:34;;;;;;;;;;;;;;;;;;5034966;28;19955;-82
2023/04/10 07:21:21;;;;;;;;;;;;;;;;;;5050962;28;20240;-81
2023/04/10 07:24:07;;;;;;;;;;;;;;;;;;5057359;28;19928;-80
2023/04/10 07:26:56;;;;;;;;;;;;;;;;;;5056576;28;19970;-80
2023/04/10 07:29:42;;;;;;;;;;;;;;;;;;5046755;28;20014;-80
2023/04/10 07:32:28;;;;;;;;;;;;;;;;;;5056557;28;19920;-79
2023/04/10 07:35:15;;;;;;;;;;;;;;;;;;5057031;28;19925;-80
2023/04/10 07:38:03;;;;;;;;;;;;;;;;;;5054276;28;20676;-80
2023/04/10 07:40:50;;;;;;;;;;;;;;;;;;5050582;28;19936;-80
2023/04/10 07:43:36;;;;;;;;;;;;;;;;;;5050550;28;20457;-80
2023/04/10 07:46:23;;;;;;;;;;;;;;;;;;5051469;28;20553;-79
2023/04/10 07:49:09;;;;;;;;;;;;;;;;;;5051867;28;19921;-80
2023/04/10 07:51:56;;;;;;;;;;;;;;;;;;5046493;28;20187;-80
2023/04/10 07:54:42;;;;;;;;;;;;;;;;;;5049009;28;20373;-80
2023/04/10 07:57:30;;;;;;;;;;;;;;;;;;5041547;28;19916;-80
2023/04/10 08:00:17;;;;;;;;;;;;;;;;;;5055378;28;20364;-81
2023/04/10 08:03:04;;;;;;;;;;;;;;;;;;5041618;28;19921;-80
2023/04/10 08:05:50;;;;;;;;;;;;;;;;;;5050374;28;20284;-83
2023/04/10 08:08:37;;;;;;;;;;;;;;;;;;5057641;28;19921;-82
2023/04/10 08:11:23;;;;;;;;;;;;;;;;;;5073147;28;19927;-81
2023/04/10 08:14:10;;;;;;;;;;;;;;;;;;5052104;28;19931;-80
2023/04/10 08:16:56;;;;;;;;;;;;;;;;;;5054052;28;20479;-82
2023/04/10 08:19:43;;;;;;;;;;;;;;;;;;5069703;28;19932;-82
2023/04/10 08:22:29;;;;;;;;;;;;;;;;;;5055911;28;19926;-81
2023/04/10 08:25:16;;;;;;;;;;;;;;;;;;5063053;28;19932;-81
2023/04/10 08:28:02;;;;;;;;;;;;;;;;;;5059788;28;20368;-82
2023/04/10 08:30:49;;;;;;;;;;;;;;;;;;5048426;28;19997;-83
2023/04/10 08:33:35;;;;;;;;;;;;;;;;;;5057585;28;19920;-82
2023/04/10 08:36:22;;;;;;;;;;;;;;;;;;5066656;28;19928;-82
2023/04/10 08:39:08;;;;;;;;;;;;;;;;;;5050416;28;19925;-82
2023/04/10 08:41:55;;;;;;;;;;;;;;;;;;5062977;28;20634;-82
2023/04/10 08:44:41;;;;;;;;;;;;;;;;;;5046767;28;19925;-82
2023/04/10 08:47:28;;;;;;;;;;;;;;;;;;5047428;28;19927;-82
2023/04/10 08:50:15;;;;;;;;;;;;;;;;;;5055482;28;19921;-83
2023/04/10 08:53:01;;;;;;;;;;;;;;;;;;5052112;28;20374;-82
2023/04/10 08:55:48;;;;;;;;;;;;;;;;;;5051811;28;19923;-83
2023/04/10 08:58:34;;;;;;;;;;;;;;;;;;5055335;28;19926;-84
2023/04/10 09:01:21;;;;;;;;;;;;;;;;;;5052680;28;19920;-83
2023/04/10 09:04:07;;;;;;;;;;;;;;;;;;5070722;28;19920;-84
2023/04/10 09:06:54;;;;;;;;;;;;;;;;;;5056830;28;19924;-83
2023/04/10 09:09:40;;;;;;;;;;;;;;;;;;5060853;28;19923;-84
2023/04/10 09:12:27;;;;;;;;;;;;;;;;;;5056983;28;19921;-84
2023/04/10 09:15:13;;;;;;;;;;;;;;;;;;5058848;28;19946;-83
2023/04/10 09:18:00;;;;;;;;;;;;;;;;;;5053628;28;19921;-83
2023/04/10 09:20:50;;;;;;;;;;;;;;;;;;5055997;28;19935;-84
2023/04/10 09:23:43;;;;;;;;;;;;;;;;;;5061870;28;19927;-82
2023/04/10 09:26:29;;;;;;;;;;;;;;;;;;5061428;28;19916;-82
2023/04/10 09:29:16;;;;;;;;;;;;;;;;;;5059297;28;19920;-82
2023/04/10 09:32:02;;;;;;;;;;;;;;;;;;5062054;28;19972;-83
2023/04/10 09:34:49;;;;;;;;;;;;;;;;;;5063975;28;19927;-82
2023/04/10 09:37:35;;;;;;;;;;;;;;;;;;5060087;28;19939;-82
2023/04/10 09:40:23;;;;;;;;;;;;;;;;;;5060030;28;19935;-82
2023/04/10 09:43:09;;;;;;;;;;;;;;;;;;5057386;28;19920;-80
2023/04/10 09:45:56;;;;;;;;;;;;;;;;;;5073422;28;19963;-80
2023/04/10 09:48:42;;;;;;;;;;;;;;;;;;5046772;28;19970;-80
2023/04/10 09:51:29;;;;;;;;;;;;;;;;;;5049801;28;19925;-81
2023/04/10 09:54:16;;;;;;;;;;;;;;;;;;5059777;28;19921;-79
2023/04/10 09:57:02;;;;;;;;;;;;;;;;;;5066216;28;19920;-80
2023/04/10 09:59:49;;;;;;;;;;;;;;;;;;5056463;28;19960;-80
2023/04/10 10:02:37;;;;;;;;;;;;;;;;;;5055114;28;19921;-80
2023/04/10 10:05:29;;;;;;;;;;;;;;;;;;5047244;28;19927;-81
2023/04/10 10:08:15;;;;;;;;;;;;;;;;;;5056681;28;19927;-82
2023/04/10 10:11:02;;;;;;;;;;;;;;;;;;5076068;28;19991;-82
2023/04/10 10:13:48;;;;;;;;;;;;;;;;;;5061094;28;20372;-87
2023/04/10 10:16:35;;;;;;;;;;;;;;;;;;5059370;28;19939;-80
2023/04/10 10:19:23;;;;;;;;;;;;;;;;;;5057403;28;19928;-81
2023/04/10 10:22:10;;;;;;;;;;;;;;;;;;5055587;28;19927;-82
2023/04/10 10:24:56;;;;;;;;;;;;;;;;;;5055755;28;19921;-82
2023/04/10 10:27:43;;;;;;;;;;;;;;;;;;5055228;28;20294;-82
2023/04/10 10:30:29;;;;;;;;;;;;;;;;;;5049165;28;19931;-82
2023/04/10 10:33:16;;;;;;;;;;;;;;;;;;5049163;28;19920;-81
2023/04/10 10:36:03;;;;;;;;;;;;;;;;;;5040956;28;19920;-81
2023/04/10 10:38:50;;;;;;;;;;;;;;;;;;5071391;28;20575;-81
2023/04/10 10:41:36;;;;;;;;;;;;;;;;;;5054073;28;20383;-81
2023/04/10 10:44:23;;;;;;;;;;;;;;;;;;5055908;28;19927;-79
2023/04/10 10:47:09;;;;;;;;;;;;;;;;;;5059086;28;19916;-78
2023/04/10 10:49:56;;;;;;;;;;;;;;;;;;5053385;28;19931;-79
2023/04/10 10:52:42;;;;;;;;;;;;;;;;;;5059649;28;19931;-80
2023/04/10 10:55:35;;;;;;;;;;;;;;;;;;5052932;28;19922;-80
2023/04/10 10:58:22;;;;;;;;;;;;;;;;;;5055594;28;20447;-81
2023/04/10 11:01:08;;;;;;;;;;;;;;;;;;5040126;28;19929;-80
2023/04/10 11:03:55;;;;;;;;;;;;;;;;;;5056226;28;19942;-84
2023/04/10 11:06:42;;;;;;;;;;;;;;;;;;5066194;28;19920;-86
2023/04/10 11:09:29;;;;;;;;;;;;;;;;;;5051735;28;20025;-85
2023/04/10 11:12:15;;;;;;;;;;;;;;;;;;5065999;28;19920;-83
2023/04/10 11:15:03;;;;;;;;;;;;;;;;;;5051533;28;19947;-84
2023/04/10 11:17:50;;;;;;;;;;;;;;;;;;5054666;28;20376;-84
2023/04/10 11:20:37;;;;;;;;;;;;;;;;;;5053149;28;19929;-80
2023/04/10 11:23:24;;;;;;;;;;;;;;;;;;5054609;28;19955;-85
2023/04/10 11:26:10;;;;;;;;;;;;;;;;;;5057021;28;19920;-85
2023/04/10 11:28:57;;;;;;;;;;;;;;;;;;5058173;28;19917;-86
2023/04/10 11:31:43;;;;;;;;;;;;;;;;;;5052502;28;19920;-85
2023/04/10 11:34:31;;;;;;;;;;;;;;;;;;5057939;28;19928;-86
2023/04/10 11:37:17;;;;;;;;;;;;;;;;;;5057582;28;19926;-85
2023/04/10 11:40:04;;;;;;;;;;;;;;;;;;5057095;28;20308;-82
2023/04/10 11:42:50;;;;;;;;;;;;;;;;;;5060232;28;19924;-83
2023/04/10 11:45:37;;;;;;;;;;;;;;;;;;5056418;28;19920;-84
2023/04/10 11:48:23;;;;;;;;;;;;;;;;;;5043796;28;20398;-90
2023/04/10 11:51:10;;;;;;;;;;;;;;;;;;5055938;28;19927;-87
2023/04/10 11:53:56;;;;;;;;;;;;;;;;;;5050434;28;19951;-87
2023/04/10 11:56:43;;;;;;;;;;;;;;;;;;5054370;28;19917;-87
2023/04/10 11:59:29;;;;;;;;;;;;;;;;;;5057230;28;19932;-88
2023/04/10 12:02:16;;;;;;;;;;;;;;;;;;5050836;28;19913;-86
2023/04/10 12:05:02;;;;;;;;;;;;;;;;;;5051412;28;19924;-87
2023/04/10 12:07:49;;;;;;;;;;;;;;;;;;5066887;28;19924;-85
2023/04/10 12:10:35;;;;;;;;;;;;;;;;;;5051718;28;19919;-85
2023/04/10 12:13:22;;;;;;;;;;;;;;;;;;5057033;28;19927;-87
2023/04/10 12:16:08;;;;;;;;;;;;;;;;;;5052755;28;19948;-86
2023/04/10 12:18:55;;;;;;;;;;;;;;;;;;5057279;28;19923;-86
2023/04/10 12:21:42;;;;;;;;;;;;;;;;;;5058840;28;19920;-86
2023/04/10 12:24:29;;;;;;;;;;;;;;;;;;5060801;28;20427;-86
2023/04/10 12:27:16;;;;;;;;;;;;;;;;;;5053175;28;19921;-86
2023/04/10 12:30:03;;;;;;;;;;;;;;;;;;5058307;28;19920;-87
2023/04/10 12:32:49;;;;;;;;;;;;;;;;;;5055242;28;19953;-87
2023/04/10 12:35:36;;;;;;;;;;;;;;;;;;5058260;28;19920;-84
2023/04/10 12:38:22;;;;;;;;;;;;;;;;;;5053707;28;19916;-85
2023/04/10 12:41:10;;;;;;;;;;;;;;;;;;5057645;28;19931;-84
2023/04/10 12:43:56;;;;;;;;;;;;;;;;;;5066938;28;20002;-86
2023/04/10 12:46:43;;;;;;;;;;;;;;;;;;5050208;28;19962;-84
2023/04/10 12:49:29;;;;;;;;;;;;;;;;;;5054612;28;19932;-83
2023/04/10 12:52:16;;;;;;;;;;;;;;;;;;5057208;28;19924;-84
2023/04/10 12:55:02;;;;;;;;;;;;;;;;;;5050227;28;19995;-85
2023/04/10 12:57:50;;;;;;;;;;;;;;;;;;5049003;28;19917;-85
2023/04/10 13:00:37;;;;;;;;;;;;;;;;;;5072188;28;19934;-85
2023/04/10 13:03:23;;;;;;;;;;;;;;;;;;5054643;28;20523;-85
2023/04/10 13:06:10;;;;;;;;;;;;;;;;;;5055956;28;19959;-86
2023/04/10 13:08:56;;;;;;;;;;;;;;;;;;5055104;28;19917;-85
2023/04/10 13:11:43;;;;;;;;;;;;;;;;;;5057195;28;19912;-85
2023/04/10 13:14:30;;;;;;;;;;;;;;;;;;5070730;28;19917;-85
2023/04/10 13:17:16;;;;;;;;;;;;;;;;;;5056958;28;19986;-84
2023/04/10 13:20:03;;;;;;;;;;;;;;;;;;5059502;28;20392;-84
2023/04/10 13:22:50;;;;;;;;;;;;;;;;;;5057295;28;19939;-84
2023/04/10 13:25:38;;;;;;;;;;;;;;;;;;5053128;28;19920;-84
2023/04/10 13:28:24;;;;;;;;;;;;;;;;;;5059715;28;20031;-84
2023/04/10 13:31:11;;;;;;;;;;;;;;;;;;5054600;28;19916;-83
2023/04/10 13:33:57;;;;;;;;;;;;;;;;;;5060179;28;20411;-83
2023/04/10 13:36:44;;;;;;;;;;;;;;;;;;5062593;28;19924;-85
2023/04/10 13:39:30;;;;;;;;;;;;;;;;;;5061498;28;19929;-82
2023/04/10 13:42:17;;;;;;;;;;;;;;;;;;5055778;28;19927;-80
2023/04/10 13:45:03;;;;;;;;;;;;;;;;;;5070768;28;19975;-81
2023/04/10 13:47:50;;;;;;;;;;;;;;;;;;5073490;28;19916;-82
2023/04/10 13:50:36;;;;;;;;;;;;;;;;;;5075339;28;20445;-80
2023/04/10 13:53:23;;;;;;;;;;;;;;;;;;5058464;28;20039;-82
2023/04/10 13:56:09;;;;;;;;;;;;;;;;;;5058278;28;19931;-80
2023/04/10 13:58:56;;;;;;;;;;;;;;;;;;5063814;28;19916;-82
2023/04/10 14:01:42;;;;;;;;;;;;;;;;;;5045054;28;19924;-81
2023/04/10 14:04:29;;;;;;;;;;;;;;;;;;5050503;28;19935;-84
2023/04/10 14:07:16;;;;;;;;;;;;;;;;;;5056533;28;19924;-85
2023/04/10 14:10:02;;;;;;;;;;;;;;;;;;5057025;28;20693;-85
2023/04/10 14:12:49;;;;;;;;;;;;;;;;;;5057488;28;19920;-85
2023/04/10 14:15:35;;;;;;;;;;;;;;;;;;5050401;28;19931;-85
2023/04/10 14:18:21;;;;;;;;;;;;;;;;;;5047805;28;19924;-85
2023/04/10 14:21:08;;;;;;;;;;;;;;;;;;5051328;28;19932;-84
2023/04/10 14:23:54;;;;;;;;;;;;;;;;;;5069507;28;19924;-83
2023/04/10 14:26:41;;;;;;;;;;;;;;;;;;5040709;28;20141;-81
2023/04/10 14:29:27;;;;;;;;;;;;;;;;;;5074501;28;20369;-86
2023/04/10 14:32:15;;;;;;;;;;;;;;;;;;5053146;28;19932;-86
2023/04/10 14:35:01;;;;;;;;;;;;;;;;;;5054959;28;19920;-84
2023/04/10 14:37:48;;;;;;;;;;;;;;;;;;5060211;28;19939;-83
2023/04/10 14:40:34;;;;;;;;;;;;;;;;;;5069873;28;19939;-82
2023/04/10 14:43:21;;;;;;;;;;;;;;;;;;5050401;28;19927;-82
2023/04/10 14:46:07;;;;;;;;;;;;;;;;;;5058071;28;19919;-84
2023/04/10 14:48:54;;;;;;;;;;;;;;;;;;5053319;28;19916;-83
2023/04/10 14:51:40;;;;;;;;;;;;;;;;;;5054157;28;19931;-82
2023/04/10 14:54:27;;;;;;;;;;;;;;;;;;5048744;28;19925;-83
2023/04/10 14:57:14;;;;;;;;;;;;;;;;;;5068897;28;19923;-84
2023/04/10 15:00:00;;;;;;;;;;;;;;;;;;5058818;28;19930;-84
2023/04/10 15:02:47;;;;;;;;;;;;;;;;;;5045961;28;19913;-82
2023/04/10 15:05:33;;;;;;;;;;;;;;;;;;5056280;28;19963;-84
2023/04/10 15:08:20;;;;;;;;;;;;;;;;;;5046643;28;19920;-85
2023/04/10 15:11:06;;;;;;;;;;;;;;;;;;5050583;28;19918;-86
2023/04/10 15:13:53;;;;;;;;;;;;;;;;;;5050925;28;19912;-86
2023/04/10 15:16:40;;;;;;;;;;;;;;;;;;5060954;28;19936;-87
2023/04/10 15:19:27;;;;;;;;;;;;;;;;;;5056024;28;19921;-87
2023/04/10 15:22:13;;;;;;;;;;;;;;;;;;5053216;28;19951;-84
2023/04/10 15:25:00;;;;;;;;;;;;;;;;;;5053192;28;19921;-84
2023/04/10 15:27:46;;;;;;;;;;;;;;;;;;5071956;28;19928;-87
2023/04/10 15:30:32;;;;;;;;;;;;;;;;;;5057033;28;19928;-84
2023/04/10 15:33:20;;;;;;;;;;;;;;;;;;5055058;28;19983;-84
2023/04/10 15:36:07;;;;;;;;;;;;;;;;;;5056426;28;19923;-84
2023/04/10 15:38:53;;;;;;;;;;;;;;;;;;5056777;28;19920;-85
2023/04/10 15:41:40;;;;;;;;;;;;;;;;;;5057885;28;19928;-84
2023/04/10 15:44:26;;;;;;;;;;;;;;;;;;5058181;28;19921;-84
2023/04/10 15:47:13;;;;;;;;;;;;;;;;;;5057490;28;20351;-84
2023/04/10 15:49:59;;;;;;;;;;;;;;;;;;5054871;28;19920;-84
2023/04/10 15:52:46;;;;;;;;;;;;;;;;;;5050817;28;19923;-84
2023/04/10 15:55:32;;;;;;;;;;;;;;;;;;5053069;28;19960;-84
2023/04/10 15:58:19;;;;;;;;;;;;;;;;;;5069958;28;19925;-84
2023/04/10 16:01:05;;;;;;;;;;;;;;;;;;5055073;28;19925;-83
2023/04/10 16:03:52;;;;;;;;;;;;;;;;;;5057022;28;20018;-83
2023/04/10 16:06:38;;;;;;;;;;;;;;;;;;5054927;28;19920;-85
2023/04/10 16:09:25;;;;;;;;;;;;;;;;;;5057919;28;19923;-84
2023/04/10 16:12:11;;;;;;;;;;;;;;;;;;5055438;28;20654;-86
2023/04/10 16:14:58;;;;;;;;;;;;;;;;;;5055996;28;19916;-85
2023/04/10 16:17:44;;;;;;;;;;;;;;;;;;5059367;28;20319;-85
2023/04/10 16:20:31;;;;;;;;;;;;;;;;;;5057953;28;19925;-85
2023/04/10 16:23:17;;;;;;;;;;;;;;;;;;5059827;28;19927;-86
2023/04/10 16:26:04;;;;;;;;;;;;;;;;;;5058658;28;20352;-83
2023/04/10 16:28:50;;;;;;;;;;;;;;;;;;5061007;28;19926;-84
2023/04/10 16:31:37;;;;;;;;;;;;;;;;;;5060429;28;20358;-84
2023/04/10 16:34:23;;;;;;;;;;;;;;;;;;5058338;28;19920;-83
2023/04/10 16:37:10;;;;;;;;;;;;;;;;;;5058225;28;19921;-84
2023/04/10 16:39:56;;;;;;;;;;;;;;;;;;5057965;28;19936;-84
2023/04/10 16:42:43;;;;;;;;;;;;;;;;;;5059098;28;19921;-85
2023/04/10 16:45:30;;;;;;;;;;;;;;;;;;5058739;28;19920;-85
2023/04/10 16:48:16;;;;;;;;;;;;;;;;;;5056932;28;19928;-86
2023/04/10 16:51:04;;;;;;;;;;;;;;;;;;5054356;28;19927;-85
2023/04/10 16:53:51;;;;;;;;;;;;;;;;;;5058893;28;19935;-85
2023/04/10 16:56:37;;;;;;;;;;;;;;;;;;5059812;28;19920;-84
2023/04/10 16:59:24;;;;;;;;;;;;;;;;;;5061126;28;19968;-86
2023/04/10 17:02:11;;;;;;;;;;;;;;;;;;5058932;28;20473;-86
2023/04/10 17:04:57;;;;;;;;;;;;;;;;;;5062873;28;20610;-85
2023/04/10 17:07:44;;;;;;;;;;;;;;;;;;5060361;28;19925;-86
2023/04/10 17:10:33;;;;;;;;;;;;;;;;;;5056641;28;19920;-86
2023/04/10 17:13:20;;;;;;;;;;;;;;;;;;5069868;28;19927;-86
2023/04/10 17:16:06;;;;;;;;;;;;;;;;;;5058853;28;19932;-86
2023/04/10 17:18:52;;;;;;;;;;;;;;;;;;5057964;28;19920;-83
2023/04/10 17:21:39;;;;;;;;;;;;;;;;;;5058137;28;19931;-83
2023/04/10 17:24:26;;;;;;;;;;;;;;;;;;5051400;28;20291;-82
2023/04/10 17:27:12;;;;;;;;;;;;;;;;;;5057192;28;19927;-83
2023/04/10 17:29:59;;;;;;;;;;;;;;;;;;5059037;28;19924;-79
2023/04/10 17:32:47;;;;;;;;;;;;;;;;;;5059911;28;20589;-83
2023/04/10 17:35:34;;;;;;;;;;;;;;;;;;5059177;28;19923;-83
2023/04/10 17:38:20;;;;;;;;;;;;;;;;;;5058138;28;19931;-83
2023/04/10 17:41:07;;;;;;;;;;;;;;;;;;5073066;28;19930;-84
2023/04/10 17:43:53;;;;;;;;;;;;;;;;;;5059639;28;19917;-84
2023/04/10 17:46:40;;;;;;;;;;;;;;;;;;5060048;28;19963;-84
2023/04/10 17:49:27;;;;;;;;;;;;;;;;;;5057278;28;20294;-82
2023/04/10 17:52:13;;;;;;;;;;;;;;;;;;5054894;28;19921;-82
2023/04/10 17:55:00;;;;;;;;;;;;;;;;;;5058689;28;19924;-80
2023/04/10 17:57:47;;;;;;;;;;;;;;;;;;5059201;28;19931;-81
2023/04/10 18:00:33;;;;;;;;;;;;;;;;;;5056872;28;19935;-80
2023/04/10 18:03:20;;;;;;;;;;;;;;;;;;5074114;28;19920;-83
2023/04/10 18:06:06;;;;;;;;;;;;;;;;;;5057876;28;19912;-84
2023/04/10 18:08:53;;;;;;;;;;;;;;;;;;5064300;28;19958;-85
2023/04/10 18:11:39;;;;;;;;;;;;;;;;;;5050511;28;20354;-82
2023/04/10 18:14:26;;;;;;;;;;;;;;;;;;5058512;28;19920;-81
2023/04/10 18:17:13;;;;;;;;;;;;;;;;;;5058196;28;19928;-83
2023/04/10 18:19:59;;;;;;;;;;;;;;;;;;5046105;28;20363;-81
2023/04/10 18:22:46;;;;;;;;;;;;;;;;;;5065257;28;19923;-85
2023/04/10 18:25:33;;;;;;;;;;;;;;;;;;5051194;28;19924;-84
2023/04/10 18:28:19;;;;;;;;;;;;;;;;;;5061588;28;19943;-81
2023/04/10 18:31:07;;;;;;;;;;;;;;;;;;5058349;28;19932;-78
2023/04/10 18:33:53;;;;;;;;;;;;;;;;;;5061534;28;19916;-80
2023/04/10 18:36:40;;;;;;;;;;;;;;;;;;5057400;28;20101;-81
2023/04/10 18:39:26;;;;;;;;;;;;;;;;;;5057966;28;19912;-82
2023/04/10 18:42:13;;;;;;;;;;;;;;;;;;5058072;28;19928;-85
2023/04/10 18:44:59;;;;;;;;;;;;;;;;;;5060796;28;19921;-82
2023/04/10 18:47:46;;;;;;;;;;;;;;;;;;5061983;28;19923;-82
2023/04/10 18:50:32;;;;;;;;;;;;;;;;;;5060082;28;19927;-84
2023/04/10 18:53:19;;;;;;;;;;;;;;;;;;5054542;28;21257;-84
2023/04/10 18:56:05;;;;;;;;;;;;;;;;;;5036435;28;19928;-86
2023/04/10 18:58:51;;;;;;;;;;;;;;;;;;5053597;28;19916;-81